sensor_id;sensor_type;location;lat;lon;timestamp;P1;durP1;ratioP1;P2;durP2;ratioP2
8225;SDS011;4154;48.810;9.012;2023-04-25T00:01:39;1.77;;;1.30;;
8225;SDS011;4154;48.810;9.012;2023-04-25T00:04:05;1.50;;;1.40;;
8225;SDS011;4154;48.810;9.012;2023-04-25T00:06:32;1.20;;;1.20;;
8225;SDS011;4154;48.810;9.012;2023-04-25T00:09:01;1.50;;;1.40;;
8225;SDS011;4154;48.810;9.012;2023-04-25T00:11:28;1.70;;;1.30;;
8225;SDS011;4154;48.810;9.012;2023-04-25T00:13:56;1.43;;;1.33;;
8225;SDS011;4154;48.810;9.012;2023-04-25T00:16:22;1.83;;;1.47;;
8225;SDS011;4154;48.810;9.012;2023-04-25T00:18:48;1.50;;;1.40;;
8225;SDS011;4154;48.810;9.012;2023-04-25T00:21:18;1.57;;;1.30;;
8225;SDS011;4154;48.810;9.012;2023-04-25T00:23:45;2.03;;;1.60;;
8225;SDS011;4154;48.810;9.012;2023-04-25T00:26:12;1.60;;;1.50;;
8225;SDS011;4154;48.810;9.012;2023-04-25T00:28:38;3.17;;;1.70;;
8225;SDS011;4154;48.810;9.012;2023-04-25T00:31:05;1.70;;;1.60;;
8225;SDS011;4154;48.810;9.012;2023-04-25T00:33:31;1.83;;;1.63;;
8225;SDS011;4154;48.810;9.012;2023-04-25T00:35:57;1.60;;;1.50;;
8225;SDS011;4154;48.810;9.012;2023-04-25T00:38:22;1.70;;;1.60;;
8225;SDS011;4154;48.810;9.012;2023-04-25T00:40:49;1.60;;;1.50;;
8225;SDS011;4154;48.810;9.012;2023-04-25T00:43:14;1.77;;;1.53;;
8225;SDS011;4154;48.810;9.012;2023-04-25T00:45:40;1.70;;;1.60;;
8225;SDS011;4154;48.810;9.012;2023-04-25T00:48:08;1.90;;;1.60;;
8225;SDS011;4154;48.810;9.012;2023-04-25T00:50:34;3.63;;;1.83;;
8225;SDS011;4154;48.810;9.012;2023-04-25T00:53:01;2.33;;;1.43;;
8225;SDS011;4154;48.810;9.012;2023-04-25T00:55:28;1.60;;;1.50;;
8225;SDS011;4154;48.810;9.012;2023-04-25T00:57:56;2.23;;;1.70;;
8225;SDS011;4154;48.810;9.012;2023-04-25T01:00:22;2.13;;;1.70;;
8225;SDS011;4154;48.810;9.012;2023-04-25T01:02:49;2.03;;;1.87;;
8225;SDS011;4154;48.810;9.012;2023-04-25T01:05:15;1.80;;;1.70;;
8225;SDS011;4154;48.810;9.012;2023-04-25T01:07:41;1.90;;;1.80;;
8225;SDS011;4154;48.810;9.012;2023-04-25T01:10:07;1.60;;;1.50;;
8225;SDS011;4154;48.810;9.012;2023-04-25T01:12:34;1.90;;;1.80;;
8225;SDS011;4154;48.810;9.012;2023-04-25T01:15:00;2.83;;;1.93;;
8225;SDS011;4154;48.810;9.012;2023-04-25T01:17:25;2.10;;;2.00;;
8225;SDS011;4154;48.810;9.012;2023-04-25T01:19:52;2.97;;;2.10;;
8225;SDS011;4154;48.810;9.012;2023-04-25T01:22:18;2.80;;;2.10;;
8225;SDS011;4154;48.810;9.012;2023-04-25T01:24:45;2.03;;;1.93;;
8225;SDS011;4154;48.810;9.012;2023-04-25T01:27:12;3.03;;;2.10;;
8225;SDS011;4154;48.810;9.012;2023-04-25T01:29:38;2.10;;;2.00;;
8225;SDS011;4154;48.810;9.012;2023-04-25T01:32:04;3.67;;;2.50;;
8225;SDS011;4154;48.810;9.012;2023-04-25T01:34:31;2.20;;;2.00;;
8225;SDS011;4154;48.810;9.012;2023-04-25T01:36:57;2.00;;;1.90;;
8225;SDS011;4154;48.810;9.012;2023-04-25T01:39:26;2.27;;;2.07;;
8225;SDS011;4154;48.810;9.012;2023-04-25T01:41:52;2.33;;;1.97;;
8225;SDS011;4154;48.810;9.012;2023-04-25T01:44:18;2.87;;;2.00;;
8225;SDS011;4154;48.810;9.012;2023-04-25T01:46:43;2.93;;;2.13;;
8225;SDS011;4154;48.810;9.012;2023-04-25T01:49:09;2.23;;;2.00;;
8225;SDS011;4154;48.810;9.012;2023-04-25T01:51:35;2.20;;;2.00;;
8225;SDS011;4154;48.810;9.012;2023-04-25T01:54:02;2.47;;;2.07;;
8225;SDS011;4154;48.810;9.012;2023-04-25T01:56:32;2.33;;;2.13;;
8225;SDS011;4154;48.810;9.012;2023-04-25T01:58:58;2.30;;;2.10;;
8225;SDS011;4154;48.810;9.012;2023-04-25T02:01:24;2.47;;;2.27;;
8225;SDS011;4154;48.810;9.012;2023-04-25T02:03:50;2.40;;;2.20;;
8225;SDS011;4154;48.810;9.012;2023-04-25T02:06:16;2.53;;;2.00;;
8225;SDS011;4154;48.810;9.012;2023-04-25T02:08:41;2.30;;;2.10;;
8225;SDS011;4154;48.810;9.012;2023-04-25T02:11:07;2.40;;;2.10;;
8225;SDS011;4154;48.810;9.012;2023-04-25T02:13:33;2.20;;;2.00;;
8225;SDS011;4154;48.810;9.012;2023-04-25T02:15:59;2.50;;;2.30;;
8225;SDS011;4154;48.810;9.012;2023-04-25T02:18:24;2.50;;;2.30;;
8225;SDS011;4154;48.810;9.012;2023-04-25T02:20:51;2.90;;;2.43;;
8225;SDS011;4154;48.810;9.012;2023-04-25T02:23:17;2.50;;;2.30;;
8225;SDS011;4154;48.810;9.012;2023-04-25T02:25:44;2.40;;;2.20;;
8225;SDS011;4154;48.810;9.012;2023-04-25T02:28:10;2.57;;;2.37;;
8225;SDS011;4154;48.810;9.012;2023-04-25T02:30:36;2.40;;;2.20;;
8225;SDS011;4154;48.810;9.012;2023-04-25T02:33:03;2.40;;;2.20;;
8225;SDS011;4154;48.810;9.012;2023-04-25T02:35:28;2.83;;;2.30;;
8225;SDS011;4154;48.810;9.012;2023-04-25T02:37:54;2.43;;;2.23;;
8225;SDS011;4154;48.810;9.012;2023-04-25T02:40:20;3.37;;;2.40;;
8225;SDS011;4154;48.810;9.012;2023-04-25T02:42:45;3.03;;;2.57;;
8225;SDS011;4154;48.810;9.012;2023-04-25T02:45:11;2.50;;;2.30;;
8225;SDS011;4154;48.810;9.012;2023-04-25T02:47:37;2.50;;;2.30;;
8225;SDS011;4154;48.810;9.012;2023-04-25T02:50:04;2.50;;;2.30;;
8225;SDS011;4154;48.810;9.012;2023-04-25T02:52:30;2.50;;;2.30;;
8225;SDS011;4154;48.810;9.012;2023-04-25T02:54:56;3.13;;;2.43;;
8225;SDS011;4154;48.810;9.012;2023-04-25T02:57:22;2.77;;;2.27;;
8225;SDS011;4154;48.810;9.012;2023-04-25T02:59:48;3.17;;;2.70;;
8225;SDS011;4154;48.810;9.012;2023-04-25T03:02:14;3.00;;;2.20;;
8225;SDS011;4154;48.810;9.012;2023-04-25T03:04:40;3.97;;;2.37;;
8225;SDS011;4154;48.810;9.012;2023-04-25T03:07:06;3.50;;;2.40;;
8225;SDS011;4154;48.810;9.012;2023-04-25T03:09:32;2.47;;;2.27;;
8225;SDS011;4154;48.810;9.012;2023-04-25T03:11:58;2.50;;;2.30;;
8225;SDS011;4154;48.810;9.012;2023-04-25T03:14:23;2.40;;;2.20;;
8225;SDS011;4154;48.810;9.012;2023-04-25T03:16:49;2.50;;;2.30;;
8225;SDS011;4154;48.810;9.012;2023-04-25T03:19:15;3.23;;;2.40;;
8225;SDS011;4154;48.810;9.012;2023-04-25T03:21:41;3.23;;;2.30;;
8225;SDS011;4154;48.810;9.012;2023-04-25T03:24:08;3.13;;;2.43;;
8225;SDS011;4154;48.810;9.012;2023-04-25T03:26:35;2.70;;;2.50;;
8225;SDS011;4154;48.810;9.012;2023-04-25T03:29:02;4.13;;;2.60;;
8225;SDS011;4154;48.810;9.012;2023-04-25T03:31:28;2.30;;;2.10;;
8225;SDS011;4154;48.810;9.012;2023-04-25T03:33:53;2.50;;;2.30;;
8225;SDS011;4154;48.810;9.012;2023-04-25T03:36:19;2.50;;;2.30;;
8225;SDS011;4154;48.810;9.012;2023-04-25T03:38:45;2.50;;;2.30;;
8225;SDS011;4154;48.810;9.012;2023-04-25T03:41:11;2.80;;;2.40;;
8225;SDS011;4154;48.810;9.012;2023-04-25T03:43:37;2.83;;;2.50;;
8225;SDS011;4154;48.810;9.012;2023-04-25T03:46:03;2.73;;;2.40;;
8225;SDS011;4154;48.810;9.012;2023-04-25T03:48:29;2.60;;;2.40;;
8225;SDS011;4154;48.810;9.012;2023-04-25T03:50:54;2.43;;;2.23;;
8225;SDS011;4154;48.810;9.012;2023-04-25T03:53:20;3.33;;;2.47;;
8225;SDS011;4154;48.810;9.012;2023-04-25T03:55:46;2.67;;;2.33;;
8225;SDS011;4154;48.810;9.012;2023-04-25T03:58:12;2.60;;;2.40;;
8225;SDS011;4154;48.810;9.012;2023-04-25T04:00:38;2.87;;;2.17;;
8225;SDS011;4154;48.810;9.012;2023-04-25T04:03:04;2.60;;;2.40;;
8225;SDS011;4154;48.810;9.012;2023-04-25T04:05:30;3.30;;;2.40;;
8225;SDS011;4154;48.810;9.012;2023-04-25T04:07:57;2.57;;;2.37;;
8225;SDS011;4154;48.810;9.012;2023-04-25T04:10:23;2.40;;;2.20;;
8225;SDS011;4154;48.810;9.012;2023-04-25T04:12:51;2.93;;;2.53;;
8225;SDS011;4154;48.810;9.012;2023-04-25T04:15:17;4.00;;;2.50;;
8225;SDS011;4154;48.810;9.012;2023-04-25T04:17:42;3.23;;;2.70;;
8225;SDS011;4154;48.810;9.012;2023-04-25T04:20:08;3.07;;;2.73;;
8225;SDS011;4154;48.810;9.012;2023-04-25T04:22:34;2.80;;;2.60;;
8225;SDS011;4154;48.810;9.012;2023-04-25T04:25:01;2.67;;;2.47;;
8225;SDS011;4154;48.810;9.012;2023-04-25T04:27:27;2.97;;;2.60;;
8225;SDS011;4154;48.810;9.012;2023-04-25T04:29:54;2.67;;;2.40;;
8225;SDS011;4154;48.810;9.012;2023-04-25T04:32:19;2.57;;;2.37;;
8225;SDS011;4154;48.810;9.012;2023-04-25T04:34:45;2.67;;;2.47;;
8225;SDS011;4154;48.810;9.012;2023-04-25T04:37:12;4.13;;;2.80;;
8225;SDS011;4154;48.810;9.012;2023-04-25T04:39:38;3.10;;;2.90;;
8225;SDS011;4154;48.810;9.012;2023-04-25T04:42:04;2.73;;;2.40;;
8225;SDS011;4154;48.810;9.012;2023-04-25T04:44:30;3.07;;;2.80;;
8225;SDS011;4154;48.810;9.012;2023-04-25T04:46:57;4.17;;;2.80;;
8225;SDS011;4154;48.810;9.012;2023-04-25T04:49:24;3.57;;;2.57;;
8225;SDS011;4154;48.810;9.012;2023-04-25T04:51:50;2.70;;;2.50;;
8225;SDS011;4154;48.810;9.012;2023-04-25T04:54:16;2.80;;;2.60;;
8225;SDS011;4154;48.810;9.012;2023-04-25T04:56:42;3.40;;;2.50;;
8225;SDS011;4154;48.810;9.012;2023-04-25T04:59:08;3.10;;;2.60;;
8225;SDS011;4154;48.810;9.012;2023-04-25T05:01:36;3.03;;;2.60;;
8225;SDS011;4154;48.810;9.012;2023-04-25T05:04:02;3.33;;;2.73;;
8225;SDS011;4154;48.810;9.012;2023-04-25T05:06:28;3.53;;;2.97;;
8225;SDS011;4154;48.810;9.012;2023-04-25T05:08:56;3.43;;;2.90;;
8225;SDS011;4154;48.810;9.012;2023-04-25T05:11:22;4.73;;;3.00;;
8225;SDS011;4154;48.810;9.012;2023-04-25T05:13:50;3.20;;;2.90;;
8225;SDS011;4154;48.810;9.012;2023-04-25T05:16:17;3.30;;;3.00;;
8225;SDS011;4154;48.810;9.012;2023-04-25T05:18:43;4.10;;;3.07;;
8225;SDS011;4154;48.810;9.012;2023-04-25T05:21:09;4.30;;;3.40;;
8225;SDS011;4154;48.810;9.012;2023-04-25T05:23:35;3.30;;;3.00;;
8225;SDS011;4154;48.810;9.012;2023-04-25T05:26:01;3.00;;;2.80;;
8225;SDS011;4154;48.810;9.012;2023-04-25T05:28:27;2.90;;;2.70;;
8225;SDS011;4154;48.810;9.012;2023-04-25T05:30:53;3.17;;;2.87;;
8225;SDS011;4154;48.810;9.012;2023-04-25T05:33:19;2.73;;;2.50;;
8225;SDS011;4154;48.810;9.012;2023-04-25T05:35:45;3.00;;;2.70;;
8225;SDS011;4154;48.810;9.012;2023-04-25T05:38:11;3.47;;;2.87;;
8225;SDS011;4154;48.810;9.012;2023-04-25T05:40:37;3.07;;;2.77;;
8225;SDS011;4154;48.810;9.012;2023-04-25T05:43:03;3.20;;;2.60;;
8225;SDS011;4154;48.810;9.012;2023-04-25T05:45:29;3.23;;;2.80;;
8225;SDS011;4154;48.810;9.012;2023-04-25T05:47:55;3.33;;;3.03;;
8225;SDS011;4154;48.810;9.012;2023-04-25T05:50:21;3.17;;;2.83;;
8225;SDS011;4154;48.810;9.012;2023-04-25T05:52:47;3.20;;;2.90;;
8225;SDS011;4154;48.810;9.012;2023-04-25T05:55:13;3.73;;;3.33;;
8225;SDS011;4154;48.810;9.012;2023-04-25T05:57:39;3.53;;;3.23;;
8225;SDS011;4154;48.810;9.012;2023-04-25T06:00:07;3.10;;;2.90;;
8225;SDS011;4154;48.810;9.012;2023-04-25T06:02:34;3.20;;;3.00;;
8225;SDS011;4154;48.810;9.012;2023-04-25T06:05:00;3.27;;;2.97;;
8225;SDS011;4154;48.810;9.012;2023-04-25T06:07:28;3.30;;;3.00;;
8225;SDS011;4154;48.810;9.012;2023-04-25T06:09:57;3.27;;;2.80;;
8225;SDS011;4154;48.810;9.012;2023-04-25T06:12:24;3.10;;;2.80;;
8225;SDS011;4154;48.810;9.012;2023-04-25T06:14:51;3.40;;;3.10;;
8225;SDS011;4154;48.810;9.012;2023-04-25T06:17:16;2.73;;;2.53;;
8225;SDS011;4154;48.810;9.012;2023-04-25T06:19:42;3.30;;;2.53;;
8225;SDS011;4154;48.810;9.012;2023-04-25T06:22:08;3.03;;;2.57;;
8225;SDS011;4154;48.810;9.012;2023-04-25T06:24:35;2.87;;;2.67;;
8225;SDS011;4154;48.810;9.012;2023-04-25T06:27:01;2.67;;;2.47;;
8225;SDS011;4154;48.810;9.012;2023-04-25T06:29:27;3.10;;;2.80;;
8225;SDS011;4154;48.810;9.012;2023-04-25T06:31:53;2.77;;;2.57;;
8225;SDS011;4154;48.810;9.012;2023-04-25T06:34:18;3.33;;;3.00;;
8225;SDS011;4154;48.810;9.012;2023-04-25T06:36:45;2.90;;;2.53;;
8225;SDS011;4154;48.810;9.012;2023-04-25T06:39:11;2.80;;;2.40;;
8225;SDS011;4154;48.810;9.012;2023-04-25T06:41:37;2.60;;;2.40;;
8225;SDS011;4154;48.810;9.012;2023-04-25T06:44:03;2.77;;;2.57;;
8225;SDS011;4154;48.810;9.012;2023-04-25T06:46:28;2.90;;;2.60;;
8225;SDS011;4154;48.810;9.012;2023-04-25T06:48:54;2.80;;;2.60;;
8225;SDS011;4154;48.810;9.012;2023-04-25T06:51:20;3.07;;;2.70;;
8225;SDS011;4154;48.810;9.012;2023-04-25T06:53:46;2.77;;;2.57;;
8225;SDS011;4154;48.810;9.012;2023-04-25T06:56:12;2.70;;;2.50;;
8225;SDS011;4154;48.810;9.012;2023-04-25T06:58:38;2.63;;;2.43;;
8225;SDS011;4154;48.810;9.012;2023-04-25T07:01:03;3.40;;;3.10;;
8225;SDS011;4154;48.810;9.012;2023-04-25T07:03:29;3.00;;;2.80;;
8225;SDS011;4154;48.810;9.012;2023-04-25T07:05:55;3.20;;;2.90;;
8225;SDS011;4154;48.810;9.012;2023-04-25T07:08:21;3.33;;;2.90;;
8225;SDS011;4154;48.810;9.012;2023-04-25T07:10:47;3.57;;;3.27;;
8225;SDS011;4154;48.810;9.012;2023-04-25T07:13:13;3.70;;;3.40;;
8225;SDS011;4154;48.810;9.012;2023-04-25T07:15:39;3.67;;;2.93;;
8225;SDS011;4154;48.810;9.012;2023-04-25T07:18:04;3.50;;;3.20;;
8225;SDS011;4154;48.810;9.012;2023-04-25T07:20:30;3.50;;;3.20;;
8225;SDS011;4154;48.810;9.012;2023-04-25T07:22:56;3.60;;;3.30;;
8225;SDS011;4154;48.810;9.012;2023-04-25T07:25:22;3.77;;;3.47;;
8225;SDS011;4154;48.810;9.012;2023-04-25T07:27:49;4.23;;;3.70;;
8225;SDS011;4154;48.810;9.012;2023-04-25T07:30:15;5.07;;;3.50;;
8225;SDS011;4154;48.810;9.012;2023-04-25T07:32:41;3.90;;;3.60;;
8225;SDS011;4154;48.810;9.012;2023-04-25T07:35:07;4.33;;;3.93;;
8225;SDS011;4154;48.810;9.012;2023-04-25T07:37:36;4.00;;;3.70;;
8225;SDS011;4154;48.810;9.012;2023-04-25T07:40:05;3.90;;;3.60;;
8225;SDS011;4154;48.810;9.012;2023-04-25T07:42:32;4.00;;;3.70;;
8225;SDS011;4154;48.810;9.012;2023-04-25T07:44:58;3.97;;;3.63;;
8225;SDS011;4154;48.810;9.012;2023-04-25T07:47:25;3.50;;;3.20;;
8225;SDS011;4154;48.810;9.012;2023-04-25T07:49:51;4.00;;;3.60;;
8225;SDS011;4154;48.810;9.012;2023-04-25T07:52:17;4.07;;;3.70;;
8225;SDS011;4154;48.810;9.012;2023-04-25T07:54:43;3.83;;;3.53;;
8225;SDS011;4154;48.810;9.012;2023-04-25T07:57:10;3.97;;;3.60;;
8225;SDS011;4154;48.810;9.012;2023-04-25T07:59:36;3.50;;;3.20;;
8225;SDS011;4154;48.810;9.012;2023-04-25T08:02:02;4.07;;;3.70;;
8225;SDS011;4154;48.810;9.012;2023-04-25T08:04:28;4.07;;;3.63;;
8225;SDS011;4154;48.810;9.012;2023-04-25T08:06:54;3.87;;;3.40;;
8225;SDS011;4154;48.810;9.012;2023-04-25T08:09:20;4.00;;;3.67;;
8225;SDS011;4154;48.810;9.012;2023-04-25T08:11:46;4.50;;;4.10;;
8225;SDS011;4154;48.810;9.012;2023-04-25T08:14:12;4.00;;;3.60;;
8225;SDS011;4154;48.810;9.012;2023-04-25T08:16:38;4.07;;;3.67;;
8225;SDS011;4154;48.810;9.012;2023-04-25T08:19:05;4.47;;;3.57;;
8225;SDS011;4154;48.810;9.012;2023-04-25T08:21:31;4.13;;;3.73;;
8225;SDS011;4154;48.810;9.012;2023-04-25T08:23:57;4.03;;;3.60;;
8225;SDS011;4154;48.810;9.012;2023-04-25T08:26:24;4.40;;;4.00;;
8225;SDS011;4154;48.810;9.012;2023-04-25T08:28:50;3.90;;;3.60;;
8225;SDS011;4154;48.810;9.012;2023-04-25T08:31:16;4.40;;;4.00;;
8225;SDS011;4154;48.810;9.012;2023-04-25T08:33:42;4.17;;;3.77;;
8225;SDS011;4154;48.810;9.012;2023-04-25T08:36:10;4.50;;;3.60;;
8225;SDS011;4154;48.810;9.012;2023-04-25T08:38:36;4.10;;;3.80;;
8225;SDS011;4154;48.810;9.012;2023-04-25T08:41:02;3.70;;;3.40;;
8225;SDS011;4154;48.810;9.012;2023-04-25T08:43:29;4.00;;;3.70;;
8225;SDS011;4154;48.810;9.012;2023-04-25T08:45:59;4.73;;;3.50;;
8225;SDS011;4154;48.810;9.012;2023-04-25T08:48:29;4.30;;;4.00;;
8225;SDS011;4154;48.810;9.012;2023-04-25T08:50:58;4.33;;;3.93;;
8225;SDS011;4154;48.810;9.012;2023-04-25T08:53:31;4.63;;;3.90;;
8225;SDS011;4154;48.810;9.012;2023-04-25T08:55:59;4.57;;;4.17;;
8225;SDS011;4154;48.810;9.012;2023-04-25T08:58:30;4.93;;;4.37;;
8225;SDS011;4154;48.810;9.012;2023-04-25T09:00:57;4.43;;;4.03;;
8225;SDS011;4154;48.810;9.012;2023-04-25T09:03:24;5.23;;;4.50;;
8225;SDS011;4154;48.810;9.012;2023-04-25T09:05:51;5.10;;;4.60;;
8225;SDS011;4154;48.810;9.012;2023-04-25T09:08:17;4.77;;;4.37;;
8225;SDS011;4154;48.810;9.012;2023-04-25T09:10:43;5.20;;;4.50;;
8225;SDS011;4154;48.810;9.012;2023-04-25T09:13:11;5.17;;;4.30;;
8225;SDS011;4154;48.810;9.012;2023-04-25T09:15:49;6.40;;;4.60;;
8225;SDS011;4154;48.810;9.012;2023-04-25T09:20:56;4.60;;;4.20;;
8225;SDS011;4154;48.810;9.012;2023-04-25T09:23:41;4.53;;;4.13;;
8225;SDS011;4154;48.810;9.012;2023-04-25T09:26:10;4.90;;;4.47;;
8225;SDS011;4154;48.810;9.012;2023-04-25T09:28:44;4.77;;;4.33;;
8225;SDS011;4154;48.810;9.012;2023-04-25T09:31:13;4.63;;;4.17;;
8225;SDS011;4154;48.810;9.012;2023-04-25T09:33:50;4.30;;;3.87;;
8225;SDS011;4154;48.810;9.012;2023-04-25T09:36:27;3.70;;;3.40;;
8225;SDS011;4154;48.810;9.012;2023-04-25T09:38:54;4.07;;;3.10;;
8225;SDS011;4154;48.810;9.012;2023-04-25T09:41:24;3.47;;;3.17;;
8225;SDS011;4154;48.810;9.012;2023-04-25T09:43:50;3.57;;;3.27;;
8225;SDS011;4154;48.810;9.012;2023-04-25T09:46:16;3.77;;;2.70;;
8225;SDS011;4154;48.810;9.012;2023-04-25T09:48:49;2.10;;;1.90;;
8225;SDS011;4154;48.810;9.012;2023-04-25T09:51:15;2.33;;;1.70;;
8225;SDS011;4154;48.810;9.012;2023-04-25T09:53:45;1.60;;;1.43;;
8225;SDS011;4154;48.810;9.012;2023-04-25T09:56:15;1.73;;;1.63;;
8225;SDS011;4154;48.810;9.012;2023-04-25T09:58:42;1.50;;;1.40;;
8225;SDS011;4154;48.810;9.012;2023-04-25T10:01:08;1.57;;;1.47;;
8225;SDS011;4154;48.810;9.012;2023-04-25T10:03:39;1.50;;;1.40;;
8225;SDS011;4154;48.810;9.012;2023-04-25T10:06:19;1.60;;;1.50;;
8225;SDS011;4154;48.810;9.012;2023-04-25T10:08:48;1.50;;;1.40;;
8225;SDS011;4154;48.810;9.012;2023-04-25T10:11:17;1.87;;;1.40;;
8225;SDS011;4154;48.810;9.012;2023-04-25T10:13:44;1.20;;;1.20;;
8225;SDS011;4154;48.810;9.012;2023-04-25T10:16:10;1.30;;;1.20;;
8225;SDS011;4154;48.810;9.012;2023-04-25T10:18:36;1.30;;;1.20;;
8225;SDS011;4154;48.810;9.012;2023-04-25T10:21:03;1.30;;;1.20;;
8225;SDS011;4154;48.810;9.012;2023-04-25T10:23:31;1.10;;;1.00;;
8225;SDS011;4154;48.810;9.012;2023-04-25T10:25:59;1.40;;;1.30;;
8225;SDS011;4154;48.810;9.012;2023-04-25T10:28:26;1.30;;;1.20;;
8225;SDS011;4154;48.810;9.012;2023-04-25T10:31:02;1.87;;;1.23;;
8225;SDS011;4154;48.810;9.012;2023-04-25T10:33:36;1.50;;;1.40;;
8225;SDS011;4154;48.810;9.012;2023-04-25T10:36:13;2.97;;;2.00;;
8225;SDS011;4154;48.810;9.012;2023-04-25T10:38:44;2.70;;;2.30;;
8225;SDS011;4154;48.810;9.012;2023-04-25T10:41:12;2.70;;;2.50;;
8225;SDS011;4154;48.810;9.012;2023-04-25T10:43:42;3.57;;;3.00;;
8225;SDS011;4154;48.810;9.012;2023-04-25T10:48:54;4.00;;;3.70;;
8225;SDS011;4154;48.810;9.012;2023-04-25T10:51:22;4.00;;;3.70;;
8225;SDS011;4154;48.810;9.012;2023-04-25T10:56:26;4.30;;;4.00;;
8225;SDS011;4154;48.810;9.012;2023-04-25T10:59:04;4.20;;;3.90;;
8225;SDS011;4154;48.810;9.012;2023-04-25T11:01:38;4.47;;;4.10;;
8225;SDS011;4154;48.810;9.012;2023-04-25T11:04:28;3.30;;;3.10;;
8225;SDS011;4154;48.810;9.012;2023-04-25T11:09:47;1.90;;;1.80;;
8225;SDS011;4154;48.810;9.012;2023-04-25T11:12:14;1.97;;;1.87;;
8225;SDS011;4154;48.810;9.012;2023-04-25T11:14:41;2.40;;;2.20;;
8225;SDS011;4154;48.810;9.012;2023-04-25T11:17:08;2.50;;;2.30;;
8225;SDS011;4154;48.810;9.012;2023-04-25T11:19:35;2.60;;;2.40;;
8225;SDS011;4154;48.810;9.012;2023-04-25T11:22:01;2.20;;;2.07;;
8225;SDS011;4154;48.810;9.012;2023-04-25T11:24:28;2.40;;;2.20;;
8225;SDS011;4154;48.810;9.012;2023-04-25T11:26:59;2.47;;;2.27;;
8225;SDS011;4154;48.810;9.012;2023-04-25T11:29:29;2.70;;;2.50;;
8225;SDS011;4154;48.810;9.012;2023-04-25T11:31:57;2.50;;;2.30;;
8225;SDS011;4154;48.810;9.012;2023-04-25T11:34:26;2.70;;;2.50;;
8225;SDS011;4154;48.810;9.012;2023-04-25T11:36:55;2.40;;;2.30;;
8225;SDS011;4154;48.810;9.012;2023-04-25T11:39:21;2.17;;;2.03;;
8225;SDS011;4154;48.810;9.012;2023-04-25T11:41:50;2.40;;;2.20;;
8225;SDS011;4154;48.810;9.012;2023-04-25T11:44:16;1.90;;;1.80;;
8225;SDS011;4154;48.810;9.012;2023-04-25T11:46:44;2.10;;;2.00;;
8225;SDS011;4154;48.810;9.012;2023-04-25T11:49:10;2.47;;;2.30;;
8225;SDS011;4154;48.810;9.012;2023-04-25T11:51:43;2.80;;;2.60;;
8225;SDS011;4154;48.810;9.012;2023-04-25T11:54:11;3.50;;;3.20;;
8225;SDS011;4154;48.810;9.012;2023-04-25T11:56:41;3.50;;;3.20;;
8225;SDS011;4154;48.810;9.012;2023-04-25T11:59:11;4.50;;;3.60;;
8225;SDS011;4154;48.810;9.012;2023-04-25T12:01:37;4.73;;;4.20;;
8225;SDS011;4154;48.810;9.012;2023-04-25T12:04:13;4.30;;;3.80;;
8225;SDS011;4154;48.810;9.012;2023-04-25T12:06:41;4.83;;;4.30;;
8225;SDS011;4154;48.810;9.012;2023-04-25T12:09:09;6.47;;;4.40;;
8225;SDS011;4154;48.810;9.012;2023-04-25T12:11:41;5.07;;;4.57;;
8225;SDS011;4154;48.810;9.012;2023-04-25T12:14:12;5.20;;;4.70;;
8225;SDS011;4154;48.810;9.012;2023-04-25T12:16:58;5.13;;;4.63;;
8225;SDS011;4154;48.810;9.012;2023-04-25T12:19:25;5.03;;;4.53;;
8225;SDS011;4154;48.810;9.012;2023-04-25T12:21:59;6.00;;;5.50;;
8225;SDS011;4154;48.810;9.012;2023-04-25T12:24:27;6.00;;;5.40;;
8225;SDS011;4154;48.810;9.012;2023-04-25T12:27:03;6.67;;;5.70;;
8225;SDS011;4154;48.810;9.012;2023-04-25T12:29:33;6.10;;;5.40;;
8225;SDS011;4154;48.810;9.012;2023-04-25T12:31:59;6.17;;;5.57;;
8225;SDS011;4154;48.810;9.012;2023-04-25T12:34:28;6.27;;;5.67;;
8225;SDS011;4154;48.810;9.012;2023-04-25T12:36:56;5.33;;;4.80;;
8225;SDS011;4154;48.810;9.012;2023-04-25T12:39:23;6.37;;;5.50;;
8225;SDS011;4154;48.810;9.012;2023-04-25T12:41:52;5.37;;;4.87;;
8225;SDS011;4154;48.810;9.012;2023-04-25T12:44:19;5.80;;;5.07;;
8225;SDS011;4154;48.810;9.012;2023-04-25T12:46:45;5.60;;;5.03;;
8225;SDS011;4154;48.810;9.012;2023-04-25T12:49:12;5.60;;;5.10;;
8225;SDS011;4154;48.810;9.012;2023-04-25T12:51:39;5.70;;;5.20;;
8225;SDS011;4154;48.810;9.012;2023-04-25T12:54:06;5.83;;;5.23;;
8225;SDS011;4154;48.810;9.012;2023-04-25T12:56:33;5.80;;;5.30;;
8225;SDS011;4154;48.810;9.012;2023-04-25T12:59:00;6.00;;;5.40;;
8225;SDS011;4154;48.810;9.012;2023-04-25T13:01:28;6.40;;;5.63;;
8225;SDS011;4154;48.810;9.012;2023-04-25T13:03:54;5.97;;;5.47;;
8225;SDS011;4154;48.810;9.012;2023-04-25T13:06:21;6.70;;;6.10;;
8225;SDS011;4154;48.810;9.012;2023-04-25T13:08:47;6.60;;;5.93;;
8225;SDS011;4154;48.810;9.012;2023-04-25T13:11:13;6.57;;;5.83;;
8225;SDS011;4154;48.810;9.012;2023-04-25T13:13:40;11.97;;;6.50;;
8225;SDS011;4154;48.810;9.012;2023-04-25T13:16:06;7.40;;;6.43;;
8225;SDS011;4154;48.810;9.012;2023-04-25T13:18:33;6.50;;;5.90;;
8225;SDS011;4154;48.810;9.012;2023-04-25T13:20:59;7.33;;;6.63;;
8225;SDS011;4154;48.810;9.012;2023-04-25T13:23:26;7.30;;;6.07;;
8225;SDS011;4154;48.810;9.012;2023-04-25T13:25:55;6.80;;;6.20;;
8225;SDS011;4154;48.810;9.012;2023-04-25T13:28:25;7.03;;;6.13;;
8225;SDS011;4154;48.810;9.012;2023-04-25T13:30:51;6.80;;;6.10;;
8225;SDS011;4154;48.810;9.012;2023-04-25T13:33:18;7.03;;;6.33;;
8225;SDS011;4154;48.810;9.012;2023-04-25T13:35:45;7.17;;;6.33;;
8225;SDS011;4154;48.810;9.012;2023-04-25T13:38:14;7.77;;;6.00;;
8225;SDS011;4154;48.810;9.012;2023-04-25T13:40:40;7.63;;;6.43;;
8225;SDS011;4154;48.810;9.012;2023-04-25T13:43:06;6.43;;;5.77;;
8225;SDS011;4154;48.810;9.012;2023-04-25T13:45:32;6.20;;;5.63;;
8225;SDS011;4154;48.810;9.012;2023-04-25T13:47:59;6.70;;;6.00;;
8225;SDS011;4154;48.810;9.012;2023-04-25T13:50:26;7.23;;;5.53;;
8225;SDS011;4154;48.810;9.012;2023-04-25T13:52:52;5.50;;;5.00;;
8225;SDS011;4154;48.810;9.012;2023-04-25T13:55:18;5.63;;;4.97;;
8225;SDS011;4154;48.810;9.012;2023-04-25T13:57:44;5.20;;;4.60;;
8225;SDS011;4154;48.810;9.012;2023-04-25T14:00:10;4.93;;;4.53;;
8225;SDS011;4154;48.810;9.012;2023-04-25T14:02:37;4.77;;;4.27;;
8225;SDS011;4154;48.810;9.012;2023-04-25T14:05:03;4.60;;;4.20;;
8225;SDS011;4154;48.810;9.012;2023-04-25T14:07:31;4.90;;;4.30;;
8225;SDS011;4154;48.810;9.012;2023-04-25T14:09:58;4.00;;;3.70;;
8225;SDS011;4154;48.810;9.012;2023-04-25T14:12:24;4.20;;;3.80;;
8225;SDS011;4154;48.810;9.012;2023-04-25T14:14:50;3.83;;;3.50;;
8225;SDS011;4154;48.810;9.012;2023-04-25T14:17:17;3.93;;;3.53;;
8225;SDS011;4154;48.810;9.012;2023-04-25T14:19:44;4.53;;;4.03;;
8225;SDS011;4154;48.810;9.012;2023-04-25T14:22:12;5.20;;;4.70;;
8225;SDS011;4154;48.810;9.012;2023-04-25T14:24:40;5.17;;;4.77;;
8225;SDS011;4154;48.810;9.012;2023-04-25T14:27:06;5.30;;;4.90;;
8225;SDS011;4154;48.810;9.012;2023-04-25T14:29:32;5.50;;;5.00;;
8225;SDS011;4154;48.810;9.012;2023-04-25T14:31:58;4.97;;;4.57;;
8225;SDS011;4154;48.810;9.012;2023-04-25T14:34:24;4.70;;;4.30;;
8225;SDS011;4154;48.810;9.012;2023-04-25T14:36:51;4.17;;;3.87;;
8225;SDS011;4154;48.810;9.012;2023-04-25T14:39:17;4.43;;;4.00;;
8225;SDS011;4154;48.810;9.012;2023-04-25T14:41:43;4.20;;;3.80;;
8225;SDS011;4154;48.810;9.012;2023-04-25T14:44:10;4.00;;;3.50;;
8225;SDS011;4154;48.810;9.012;2023-04-25T14:46:36;4.40;;;4.00;;
8225;SDS011;4154;48.810;9.012;2023-04-25T14:49:02;6.27;;;3.47;;
8225;SDS011;4154;48.810;9.012;2023-04-25T14:51:28;4.73;;;3.53;;
8225;SDS011;4154;48.810;9.012;2023-04-25T14:53:55;3.70;;;3.40;;
8225;SDS011;4154;48.810;9.012;2023-04-25T14:56:21;3.73;;;3.43;;
8225;SDS011;4154;48.810;9.012;2023-04-25T14:58:47;3.93;;;3.40;;
8225;SDS011;4154;48.810;9.012;2023-04-25T15:01:13;4.70;;;3.60;;
8225;SDS011;4154;48.810;9.012;2023-04-25T15:03:40;3.90;;;3.60;;
8225;SDS011;4154;48.810;9.012;2023-04-25T15:06:06;4.57;;;3.73;;
8225;SDS011;4154;48.810;9.012;2023-04-25T15:08:32;5.57;;;4.30;;
8225;SDS011;4154;48.810;9.012;2023-04-25T15:10:58;4.47;;;4.03;;
8225;SDS011;4154;48.810;9.012;2023-04-25T15:13:25;4.77;;;4.03;;
8225;SDS011;4154;48.810;9.012;2023-04-25T15:15:51;4.67;;;3.50;;
8225;SDS011;4154;48.810;9.012;2023-04-25T15:18:20;4.70;;;3.70;;
8225;SDS011;4154;48.810;9.012;2023-04-25T15:20:50;4.10;;;3.70;;
8225;SDS011;4154;48.810;9.012;2023-04-25T15:23:17;4.57;;;3.73;;
8225;SDS011;4154;48.810;9.012;2023-04-25T15:25:44;4.53;;;3.90;;